Terminal Aerodrome Forecast
Issued by NWS

Home | Current Version | Previous Version | Text Only | Print | Product List | Glossary On
Versions: 1 2 3 4 5 6 7 8 9 10 11 12 13 14 15 16 17 18 19 20 21 22 23 24 25
000
FTUS43 KLSX 211100
TAFCPS
TAF
KCPS 211134Z 2112/2212 24010KT P6SM SCT100
     FM211500 26016G26KT P6SM BKN080
     FM220000 24009KT P6SM BKN060 PROB30 2201/2207 5SM -SHRA
     FM220800 31009KT P6SM BKN040=

USA.gov is the U.S. government's official web portal to all federal, state and local government web resources and services.